createdAt,value
2019-05-15T00:00:49.195Z,292.00
2019-05-15T00:01:49.214Z,308.00
2019-05-15T00:02:49.233Z,308.00
2019-05-15T00:03:49.470Z,304.00
2019-05-15T00:04:49.355Z,312.00
2019-05-15T00:05:49.758Z,340.00
2019-05-15T00:06:49.315Z,340.00
2019-05-15T00:07:49.332Z,368.00
2019-05-15T00:08:49.354Z,372.00
2019-05-15T00:09:49.382Z,352.00
2019-05-15T00:10:49.391Z,352.00
2019-05-15T00:11:49.411Z,372.00
2019-05-15T00:12:49.432Z,412.00
2019-05-15T00:13:49.448Z,432.00
2019-05-15T00:14:49.471Z,432.00
2019-05-15T00:15:49.489Z,440.00
2019-05-15T00:16:49.511Z,440.00
2019-05-15T00:17:49.535Z,448.00
2019-05-15T00:18:49.549Z,464.00
2019-05-15T00:19:49.574Z,484.00
2019-05-15T00:20:49.919Z,468.00
2019-05-15T00:21:49.608Z,448.00
2019-05-15T00:22:49.631Z,500.00
2019-05-15T00:23:49.650Z,500.00
2019-05-15T00:24:49.673Z,504.00
2019-05-15T00:25:49.690Z,452.00
2019-05-15T00:26:49.708Z,420.00
2019-05-15T00:27:49.739Z,448.00
2019-05-15T00:28:49.754Z,400.00
2019-05-15T00:29:49.776Z,384.00
2019-05-15T00:30:49.792Z,356.00
2019-05-15T00:31:49.812Z,352.00
2019-05-15T00:32:49.836Z,344.00
2019-05-15T00:33:49.853Z,344.00
2019-05-15T00:34:49.875Z,332.00
2019-05-15T00:35:49.891Z,348.00
2019-05-15T00:36:49.912Z,340.00
2019-05-15T00:37:49.952Z,316.00
2019-05-15T00:38:49.951Z,320.00
2019-05-15T00:39:49.971Z,368.00
2019-05-15T00:40:49.990Z,396.00
2019-05-15T00:41:54.283Z,384.00
2019-05-15T00:42:50.036Z,376.00
2019-05-15T00:43:50.055Z,380.00
2019-05-15T00:44:50.072Z,380.00
2019-05-15T00:45:50.090Z,376.00
2019-05-15T00:46:50.117Z,364.00
2019-05-15T00:47:50.133Z,360.00
2019-05-15T00:48:50.159Z,344.00
2019-05-15T00:49:50.173Z,332.00
2019-05-15T00:50:50.194Z,300.00
2019-05-15T00:51:50.213Z,300.00
2019-05-15T00:52:50.232Z,316.00
2019-05-15T00:53:50.253Z,328.00
2019-05-15T00:54:50.276Z,348.00
2019-05-15T00:55:50.294Z,360.00
2019-05-15T00:56:50.318Z,356.00
2019-05-15T00:57:50.334Z,352.00
2019-05-15T00:58:50.354Z,344.00
2019-05-15T00:59:50.377Z,340.00
2019-05-15T01:00:50.396Z,336.00
2019-05-15T01:01:50.423Z,384.00
2019-05-15T01:02:50.436Z,368.00
2019-05-15T01:03:50.483Z,388.00
2019-05-15T01:04:50.511Z,364.00
2019-05-15T01:05:50.526Z,360.00
2019-05-15T01:06:52.679Z,360.00
2019-05-15T01:07:50.583Z,356.00
2019-05-15T01:08:50.591Z,356.00
2019-05-15T01:09:50.641Z,356.00
2019-05-15T01:10:50.640Z,360.00
2019-05-15T01:11:50.652Z,356.00
2019-05-15T01:12:50.672Z,372.00
2019-05-15T01:13:50.692Z,368.00
2019-05-15T01:14:50.713Z,372.00
2019-05-15T01:15:50.729Z,372.00
2019-05-15T01:16:50.757Z,388.00
2019-05-15T01:17:50.772Z,376.00
2019-05-15T01:18:50.791Z,372.00
2019-05-15T01:19:50.805Z,384.00
2019-05-15T01:20:50.829Z,392.00
2019-05-15T01:21:50.851Z,392.00
2019-05-15T01:22:50.843Z,388.00
2019-05-15T01:23:50.865Z,384.00
2019-05-15T01:24:50.884Z,372.00
2019-05-15T01:25:50.908Z,368.00
2019-05-15T01:26:50.943Z,372.00
2019-05-15T01:27:50.957Z,372.00
2019-05-15T01:28:50.968Z,384.00
2019-05-15T01:29:50.993Z,388.00
2019-05-15T01:30:51.009Z,388.00
2019-05-15T01:31:51.029Z,384.00
2019-05-15T01:32:51.050Z,376.00
2019-05-15T01:33:51.071Z,384.00
2019-05-15T01:34:51.105Z,384.00
2019-05-15T01:35:51.114Z,392.00
2019-05-15T01:36:51.142Z,400.00
2019-05-15T01:37:51.155Z,400.00
2019-05-15T01:38:51.171Z,408.00
2019-05-15T01:39:51.194Z,416.00
2019-05-15T01:40:51.212Z,424.00
2019-05-15T01:41:51.236Z,440.00
2019-05-15T01:42:51.254Z,444.00
2019-05-15T01:43:51.283Z,444.00
2019-05-15T01:44:51.298Z,448.00
2019-05-15T01:45:51.320Z,444.00
2019-05-15T01:46:51.340Z,452.00
2019-05-15T01:47:51.360Z,456.00
2019-05-15T01:48:51.378Z,464.00
2019-05-15T01:49:51.403Z,472.00
2019-05-15T01:50:51.423Z,464.00
2019-05-15T01:51:51.442Z,460.00
2019-05-15T01:52:52.378Z,452.00
2019-05-15T01:53:51.480Z,456.00
2019-05-15T01:54:51.502Z,464.00
2019-05-15T01:55:51.524Z,456.00
2019-05-15T01:56:51.547Z,416.00
2019-05-15T01:57:52.053Z,448.00
2019-05-15T01:58:51.587Z,452.00
2019-05-15T01:59:57.208Z,444.00
2019-05-15T02:00:51.628Z,356.00
2019-05-15T02:01:51.648Z,444.00
2019-05-15T02:02:51.951Z,444.00
2019-05-15T02:03:51.692Z,436.00
2019-05-15T02:04:51.713Z,396.00
2019-05-15T02:05:51.734Z,448.00
2019-05-15T02:06:51.777Z,436.00
2019-05-15T02:07:51.779Z,420.00
2019-05-15T02:08:51.796Z,440.00
2019-05-15T02:09:51.816Z,448.00
2019-05-15T02:10:51.839Z,452.00
2019-05-15T02:11:51.870Z,452.00
2019-05-15T02:12:51.878Z,444.00
2019-05-15T02:13:51.900Z,452.00
2019-05-15T02:14:51.923Z,444.00
2019-05-15T02:15:51.942Z,452.00
2019-05-15T02:16:51.965Z,456.00
2019-05-15T02:17:51.985Z,464.00
2019-05-15T02:18:52.019Z,448.00
2019-05-15T02:19:52.025Z,472.00
2019-05-15T02:20:52.065Z,464.00
2019-05-15T02:21:52.070Z,464.00
2019-05-15T02:22:52.092Z,476.00
2019-05-15T02:23:52.110Z,468.00
2019-05-15T02:24:52.131Z,472.00
2019-05-15T02:25:52.155Z,484.00
2019-05-15T02:26:52.173Z,492.00
2019-05-15T02:27:52.196Z,480.00
2019-05-15T02:28:52.809Z,480.00
2019-05-15T02:29:52.267Z,476.00
2019-05-15T02:30:52.263Z,484.00
2019-05-15T02:31:52.277Z,488.00
2019-05-15T02:32:52.304Z,496.00
2019-05-15T02:33:52.329Z,484.00
2019-05-15T02:34:52.356Z,496.00
2019-05-15T02:35:52.370Z,492.00
2019-05-15T02:36:52.390Z,488.00
2019-05-15T02:37:52.403Z,496.00
2019-05-15T02:38:52.427Z,496.00
2019-05-15T02:39:52.451Z,496.00
2019-05-15T02:40:59.158Z,488.00
2019-05-15T02:41:52.499Z,488.00
2019-05-15T02:42:53.829Z,496.00
2019-05-15T02:43:53.057Z,492.00
2019-05-15T02:44:52.673Z,476.00
2019-05-15T02:45:52.624Z,468.00
2019-05-15T02:46:52.599Z,484.00
2019-05-15T02:47:52.617Z,496.00
2019-05-15T02:48:52.653Z,504.00
2019-05-15T02:49:52.661Z,512.00
2019-05-15T02:50:52.697Z,516.00
2019-05-15T02:51:52.702Z,528.00
2019-05-15T02:52:52.726Z,544.00
2019-05-15T02:53:52.748Z,544.00
2019-05-15T02:54:52.766Z,548.00
2019-05-15T02:55:52.791Z,556.00
2019-05-15T02:56:52.810Z,552.00
2019-05-15T02:57:52.831Z,600.00
2019-05-15T02:58:52.877Z,604.00
2019-05-15T02:59:52.886Z,620.00
2019-05-15T03:00:53.706Z,624.00
2019-05-15T03:01:52.922Z,628.00
2019-05-15T03:02:53.046Z,628.00
2019-05-15T03:03:52.967Z,640.00
2019-05-15T03:04:53.191Z,648.00
2019-05-15T03:05:53.002Z,652.00
2019-05-15T03:06:53.026Z,660.00
2019-05-15T03:07:53.048Z,676.00
2019-05-15T03:08:53.067Z,704.00
2019-05-15T03:09:53.104Z,728.00
2019-05-15T03:10:53.118Z,736.00
2019-05-15T03:11:53.135Z,756.00
2019-05-15T03:12:53.161Z,760.00
2019-05-15T03:13:53.176Z,776.00
2019-05-15T03:14:53.202Z,756.00
2019-05-15T03:15:53.220Z,816.00
2019-05-15T03:16:53.403Z,788.00
2019-05-15T03:17:53.349Z,776.00
2019-05-15T03:18:55.724Z,760.00
2019-05-15T03:19:53.315Z,812.00
2019-05-15T03:20:53.561Z,828.00
2019-05-15T03:21:53.389Z,860.00
2019-05-15T03:22:53.453Z,848.00
2019-05-15T03:23:53.405Z,840.00
2019-05-15T03:24:53.415Z,800.00
2019-05-15T03:25:53.447Z,788.00
2019-05-15T03:26:53.460Z,776.00
2019-05-15T03:27:53.485Z,764.00
2019-05-15T03:28:58.987Z,760.00
2019-05-15T03:29:53.524Z,676.00
2019-05-15T03:32:13.164Z,716.00
2019-05-15T03:33:02.325Z,752.00
2019-05-15T03:33:54.793Z,796.00
2019-05-15T03:34:56.503Z,776.00
2019-05-15T03:35:55.008Z,916.00
2019-05-15T03:36:53.785Z,872.00
2019-05-15T03:37:53.707Z,796.00
2019-05-15T03:38:53.721Z,760.00
2019-05-15T03:39:53.744Z,780.00
2019-05-15T03:40:53.766Z,812.00
2019-05-15T03:41:53.791Z,836.00
2019-05-15T03:42:53.820Z,852.00
2019-05-15T03:43:53.846Z,860.00
2019-05-15T03:44:53.856Z,864.00
2019-05-15T03:45:53.876Z,864.00
2019-05-15T03:46:53.913Z,920.00
2019-05-15T03:47:53.922Z,988.00
2019-05-15T03:48:53.943Z,960.00
2019-05-15T03:49:53.964Z,944.00
2019-05-15T03:50:53.992Z,912.00
2019-05-15T03:51:54.011Z,924.00
2019-05-15T03:52:54.033Z,944.00
2019-05-15T03:53:54.062Z,916.00
2019-05-15T03:54:54.080Z,928.00
2019-05-15T03:55:54.099Z,944.00
2019-05-15T03:56:54.122Z,932.00
2019-05-15T03:57:54.147Z,1016.00
2019-05-15T03:58:54.181Z,1044.00
2019-05-15T03:59:54.197Z,1024.00
2019-05-15T04:00:54.207Z,980.00
2019-05-15T04:01:54.229Z,920.00
2019-05-15T04:02:55.157Z,860.00
2019-05-15T04:03:54.275Z,800.00
2019-05-15T04:04:57.196Z,716.00
2019-05-15T04:05:54.319Z,652.00
2019-05-15T04:06:54.347Z,636.00
2019-05-15T04:07:54.460Z,632.00
2019-05-15T04:08:54.418Z,612.00
2019-05-15T04:09:54.409Z,600.00
2019-05-15T04:10:54.434Z,632.00
2019-05-15T04:11:54.453Z,660.00
2019-05-15T04:12:54.476Z,644.00
2019-05-15T04:13:54.498Z,620.00
2019-05-15T04:14:54.661Z,656.00
2019-05-15T04:15:54.667Z,684.00
2019-05-15T04:16:54.565Z,712.00
2019-05-15T04:17:54.586Z,692.00
2019-05-15T04:18:54.616Z,680.00
2019-05-15T04:19:54.656Z,640.00
2019-05-15T04:20:54.674Z,584.00
2019-05-15T04:21:54.675Z,716.00
2019-05-15T04:22:54.698Z,724.00
2019-05-15T04:23:54.723Z,596.00
2019-05-15T04:24:54.747Z,588.00
2019-05-15T04:25:54.767Z,568.00
2019-05-15T04:26:54.791Z,740.00
2019-05-15T04:27:54.811Z,792.00
2019-05-15T04:28:54.847Z,800.00
2019-05-15T04:29:54.856Z,588.00
2019-05-15T04:30:54.880Z,568.00
2019-05-15T04:32:01.021Z,708.00
2019-05-15T04:32:54.925Z,760.00
2019-05-15T04:33:54.950Z,688.00
2019-05-15T04:34:54.970Z,656.00
2019-05-15T04:35:54.994Z,776.00
2019-05-15T04:36:55.018Z,800.00
2019-05-15T04:37:55.042Z,716.00
2019-05-15T04:38:55.057Z,672.00
2019-05-15T04:39:55.089Z,668.00
2019-05-15T04:40:55.103Z,668.00
2019-05-15T04:41:55.125Z,656.00
2019-05-15T04:42:55.154Z,648.00
2019-05-15T04:43:55.177Z,632.00
2019-05-15T04:44:55.201Z,636.00
2019-05-15T04:45:59.195Z,600.00
2019-05-15T04:46:55.267Z,604.00
2019-05-15T04:47:58.540Z,500.00
2019-05-15T04:48:55.283Z,604.00
2019-05-15T04:49:55.309Z,644.00
2019-05-15T04:50:55.333Z,608.00
2019-05-15T04:52:00.261Z,652.00
2019-05-15T04:52:59.029Z,676.00
2019-05-15T04:53:58.465Z,684.00
2019-05-15T04:54:55.430Z,676.00
2019-05-15T04:55:55.526Z,656.00
2019-05-15T04:56:55.472Z,628.00
2019-05-15T04:57:55.490Z,516.00
2019-05-15T04:58:55.676Z,580.00
2019-05-15T04:59:55.544Z,528.00
2019-05-15T05:00:55.555Z,672.00
2019-05-15T05:02:12.947Z,672.00
2019-05-15T05:02:58.760Z,632.00
2019-05-15T05:03:58.722Z,648.00
2019-05-15T05:04:58.610Z,644.00
2019-05-15T05:05:58.836Z,640.00
2019-05-15T05:06:58.527Z,700.00
2019-05-15T05:07:55.724Z,732.00
2019-05-15T05:08:55.739Z,716.00
2019-05-15T05:09:55.758Z,696.00
2019-05-15T05:10:58.838Z,700.00
2019-05-15T05:11:58.117Z,688.00
2019-05-15T05:12:55.828Z,676.00
2019-05-15T05:13:55.848Z,724.00
2019-05-15T05:14:58.613Z,712.00
2019-05-15T05:15:58.476Z,688.00
2019-05-15T05:16:55.918Z,528.00
2019-05-15T05:17:58.417Z,612.00
2019-05-15T05:18:55.971Z,824.00
2019-05-15T05:19:58.242Z,896.00
2019-05-15T05:20:57.749Z,888.00
2019-05-15T05:21:56.036Z,844.00
2019-05-15T05:22:58.249Z,840.00
2019-05-15T05:23:56.078Z,820.00
2019-05-15T05:24:58.368Z,832.00
2019-05-15T05:25:58.099Z,856.00
2019-05-15T05:26:58.109Z,888.00
2019-05-15T05:27:58.044Z,908.00
2019-05-15T05:29:01.092Z,888.00
2019-05-15T05:29:58.590Z,872.00
2019-05-15T05:30:58.576Z,720.00
2019-05-15T05:31:58.457Z,884.00
2019-05-15T05:32:57.989Z,712.00
2019-05-15T05:33:57.780Z,748.00
2019-05-15T05:34:58.810Z,668.00
2019-05-15T05:35:58.347Z,676.00
2019-05-15T05:36:58.885Z,892.00
2019-05-15T05:37:58.323Z,920.00
2019-05-15T05:38:58.403Z,928.00
2019-05-15T05:39:57.698Z,916.00
2019-05-15T05:40:58.643Z,684.00
2019-05-15T05:41:58.661Z,684.00
2019-05-15T05:42:56.516Z,648.00
2019-05-15T05:43:58.581Z,632.00
2019-05-15T05:44:58.221Z,660.00
2019-05-15T05:45:58.248Z,760.00
2019-05-15T05:46:58.218Z,836.00
2019-05-15T05:47:58.062Z,1048.00
2019-05-15T05:48:58.320Z,944.00
2019-05-15T05:49:58.177Z,968.00
2019-05-15T05:50:58.380Z,1220.00
2019-05-15T05:51:58.724Z,1164.00
2019-05-15T05:52:57.946Z,1104.00
2019-05-15T05:53:58.879Z,996.00
2019-05-15T05:54:58.136Z,884.00
2019-05-15T05:55:58.023Z,1116.00
2019-05-15T05:56:58.608Z,860.00
2019-05-15T05:57:58.429Z,1136.00
2019-05-15T05:58:58.582Z,836.00
2019-05-15T05:59:58.317Z,1284.00
2019-05-15T06:00:58.623Z,1372.00
2019-05-15T06:01:58.950Z,1428.00
2019-05-15T06:02:59.119Z,1364.00
2019-05-15T06:03:58.322Z,1296.00
2019-05-15T06:04:58.240Z,1224.00
2019-05-15T06:05:59.005Z,1204.00
2019-05-15T06:07:06.983Z,1124.00
2019-05-15T06:07:58.192Z,1148.00
2019-05-15T06:08:58.399Z,920.00
2019-05-15T06:09:58.148Z,768.00
2019-05-15T06:10:58.475Z,880.00
2019-05-15T06:11:58.336Z,772.00
2019-05-15T06:12:58.697Z,1076.00
2019-05-15T06:13:58.376Z,1040.00
2019-05-15T06:14:58.093Z,1000.00
2019-05-15T06:15:59.041Z,752.00
2019-05-15T06:16:58.866Z,1112.00
2019-05-15T06:17:58.541Z,1192.00
2019-05-15T06:18:58.662Z,972.00
2019-05-15T06:19:58.629Z,1320.00
2019-05-15T06:20:58.623Z,1076.00
2019-05-15T06:22:00.774Z,1292.00
2019-05-15T06:22:58.026Z,1048.00
2019-05-15T06:24:03.577Z,1144.00
2019-05-15T06:24:57.992Z,1236.00
2019-05-15T06:25:59.224Z,1020.00
2019-05-15T06:26:58.680Z,904.00
2019-05-15T06:27:58.341Z,876.00
2019-05-15T06:28:58.409Z,860.00
2019-05-15T06:29:58.086Z,776.00
2019-05-15T06:31:00.635Z,688.00
2019-05-15T06:31:58.754Z,676.00
2019-05-15T06:33:05.663Z,828.00
2019-05-15T06:33:58.158Z,960.00
2019-05-15T06:34:57.897Z,740.00
2019-05-15T06:35:59.220Z,668.00
2019-05-15T06:36:58.892Z,636.00
2019-05-15T06:37:59.118Z,616.00
2019-05-15T06:38:59.026Z,588.00
2019-05-15T06:39:58.839Z,552.00
2019-05-15T06:40:58.359Z,544.00
2019-05-15T06:41:58.833Z,536.00
2019-05-15T06:42:59.323Z,528.00
2019-05-15T06:43:58.916Z,520.00
2019-05-15T06:44:58.948Z,548.00
2019-05-15T06:45:58.565Z,592.00
2019-05-15T06:46:58.753Z,728.00
2019-05-15T06:48:01.369Z,652.00
2019-05-15T06:48:58.257Z,628.00
2019-05-15T06:49:58.090Z,612.00
2019-05-15T06:50:58.118Z,628.00
2019-05-15T06:51:58.267Z,660.00
2019-05-15T06:52:58.732Z,612.00
2019-05-15T06:53:58.409Z,552.00
2019-05-15T06:54:59.275Z,496.00
2019-05-15T06:55:58.595Z,464.00
2019-05-15T06:56:58.524Z,456.00
2019-05-15T06:57:58.519Z,460.00
2019-05-15T06:58:58.358Z,456.00
2019-05-15T06:59:58.350Z,464.00
2019-05-15T07:00:59.283Z,480.00
2019-05-15T07:01:59.392Z,492.00
2019-05-15T07:02:58.496Z,652.00
2019-05-15T07:03:59.061Z,584.00
2019-05-15T07:04:58.537Z,652.00
2019-05-15T07:05:59.748Z,672.00
2019-05-15T07:06:58.561Z,712.00
2019-05-15T07:07:58.655Z,732.00
2019-05-15T07:08:58.826Z,720.00
2019-05-15T07:09:58.551Z,792.00
2019-05-15T07:10:58.585Z,840.00
2019-05-15T07:11:59.071Z,692.00
2019-05-15T07:12:58.649Z,708.00
2019-05-15T07:13:58.645Z,644.00
2019-05-15T07:14:58.679Z,620.00
2019-05-15T07:15:58.777Z,616.00
2019-05-15T07:16:59.173Z,632.00
2019-05-15T07:17:58.742Z,648.00
2019-05-15T07:18:59.049Z,620.00
2019-05-15T07:19:59.389Z,572.00
2019-05-15T07:20:58.841Z,540.00
2019-05-15T07:21:58.832Z,528.00
2019-05-15T07:22:58.856Z,528.00
2019-05-15T07:23:58.879Z,540.00
2019-05-15T07:24:58.917Z,564.00
2019-05-15T07:25:58.963Z,576.00
2019-05-15T07:26:59.290Z,588.00
2019-05-15T07:27:58.975Z,628.00
2019-05-15T07:28:59.610Z,672.00
2019-05-15T07:29:59.021Z,708.00
2019-05-15T07:30:59.048Z,744.00
2019-05-15T07:31:59.071Z,764.00
2019-05-15T07:32:59.091Z,732.00
2019-05-15T07:33:59.984Z,708.00
2019-05-15T07:34:59.141Z,692.00
2019-05-15T07:35:59.262Z,716.00
2019-05-15T07:36:59.365Z,684.00
2019-05-15T07:37:59.221Z,780.00
2019-05-15T07:38:59.271Z,648.00
2019-05-15T07:39:59.295Z,588.00
2019-05-15T07:41:03.429Z,576.00
2019-05-15T07:41:59.299Z,544.00
2019-05-15T07:42:59.328Z,568.00
2019-05-15T07:43:59.346Z,620.00
2019-05-15T07:44:59.369Z,612.00
2019-05-15T07:45:59.391Z,616.00
2019-05-15T07:46:59.416Z,688.00
2019-05-15T07:47:59.465Z,764.00
2019-05-15T07:48:59.468Z,864.00
2019-05-15T07:49:59.512Z,1080.00
2019-05-15T07:50:59.620Z,1244.00
2019-05-15T07:51:59.532Z,1212.00
2019-05-15T07:52:59.572Z,1092.00
2019-05-15T07:54:02.550Z,1032.00
2019-05-15T07:54:59.601Z,1136.00
2019-05-15T07:56:01.124Z,2600.00
2019-05-15T07:56:59.661Z,4972.00
2019-05-15T07:57:59.673Z,3796.00
2019-05-15T07:58:59.764Z,3688.00
2019-05-15T07:59:59.722Z,3276.00
2019-05-15T08:00:59.742Z,1080.00
2019-05-15T08:01:59.765Z,1020.00
2019-05-15T08:02:59.793Z,940.00
2019-05-15T08:04:21.710Z,888.00
2019-05-15T08:04:59.834Z,872.00
2019-05-15T08:06:02.966Z,768.00
2019-05-15T08:06:59.882Z,728.00
2019-05-15T08:07:59.906Z,728.00
2019-05-15T08:08:59.938Z,716.00
2019-05-15T08:09:59.956Z,720.00
2019-05-15T08:11:14.834Z,736.00
2019-05-15T08:12:03.134Z,768.00
2019-05-15T08:13:00.024Z,752.00
2019-05-15T08:14:00.050Z,744.00
2019-05-15T08:15:00.071Z,784.00
2019-05-15T08:16:00.092Z,784.00
2019-05-15T08:17:00.116Z,804.00
2019-05-15T08:18:08.698Z,776.00
2019-05-15T08:19:00.165Z,748.00
2019-05-15T08:20:00.187Z,728.00
2019-05-15T08:21:00.208Z,716.00
2019-05-15T08:22:00.233Z,740.00
2019-05-15T08:23:00.258Z,740.00
2019-05-15T08:24:00.280Z,716.00
2019-05-15T08:25:00.303Z,712.00
2019-05-15T08:26:00.326Z,708.00
2019-05-15T08:27:00.348Z,752.00
2019-05-15T08:28:00.375Z,856.00
2019-05-15T08:29:00.402Z,872.00
2019-05-15T08:30:00.423Z,856.00
2019-05-15T08:31:00.443Z,812.00
2019-05-15T08:32:00.469Z,824.00
2019-05-15T08:33:00.510Z,824.00
2019-05-15T08:34:12.801Z,792.00
2019-05-15T08:35:00.537Z,748.00
2019-05-15T08:36:00.561Z,712.00
2019-05-15T08:37:00.586Z,704.00
2019-05-15T08:38:00.606Z,704.00
2019-05-15T08:39:00.631Z,704.00
2019-05-15T08:40:00.689Z,704.00
2019-05-15T08:41:00.729Z,700.00
2019-05-15T08:42:00.700Z,696.00
2019-05-15T08:43:02.121Z,672.00
2019-05-15T08:44:00.752Z,664.00
2019-05-15T08:45:00.770Z,700.00
2019-05-15T08:46:00.800Z,680.00
2019-05-15T08:47:00.818Z,612.00
2019-05-15T08:48:00.841Z,564.00
2019-05-15T08:49:00.868Z,568.00
2019-05-15T08:50:00.899Z,608.00
2019-05-15T08:51:00.913Z,672.00
2019-05-15T08:52:00.935Z,648.00
2019-05-15T08:53:00.962Z,640.00
2019-05-15T08:54:00.988Z,600.00
2019-05-15T08:55:01.018Z,580.00
2019-05-15T08:56:01.031Z,572.00
2019-05-15T08:57:01.056Z,616.00
2019-05-15T08:58:06.702Z,736.00
2019-05-15T08:59:01.106Z,720.00
2019-05-15T09:00:01.153Z,720.00
2019-05-15T09:01:01.183Z,700.00
2019-05-15T09:02:01.168Z,676.00
2019-05-15T09:03:01.207Z,768.00
2019-05-15T09:04:01.238Z,892.00
2019-05-15T09:05:01.258Z,724.00
2019-05-15T09:06:01.264Z,724.00
2019-05-15T09:07:01.462Z,736.00
2019-05-15T09:08:01.313Z,740.00
2019-05-15T09:09:01.365Z,716.00
2019-05-15T09:10:01.360Z,728.00
2019-05-15T09:11:01.378Z,660.00
2019-05-15T09:12:01.401Z,640.00
2019-05-15T09:13:01.423Z,624.00
2019-05-15T09:14:01.446Z,584.00
2019-05-15T09:15:01.477Z,564.00
2019-05-15T09:16:01.512Z,520.00
2019-05-15T09:17:01.519Z,504.00
2019-05-15T09:18:14.797Z,444.00
2019-05-15T09:19:01.583Z,464.00
2019-05-15T09:20:01.590Z,464.00
2019-05-15T09:21:01.700Z,432.00
2019-05-15T09:22:01.633Z,412.00
2019-05-15T09:23:01.683Z,408.00
2019-05-15T09:24:01.681Z,404.00
2019-05-15T09:25:01.721Z,408.00
2019-05-15T09:26:01.729Z,436.00
2019-05-15T09:27:01.770Z,436.00
2019-05-15T09:28:01.777Z,408.00
2019-05-15T09:29:01.883Z,392.00
2019-05-15T09:30:01.820Z,368.00
2019-05-15T09:31:01.849Z,356.00
2019-05-15T09:32:01.868Z,368.00
2019-05-15T09:33:01.977Z,376.00
2019-05-15T09:34:01.946Z,392.00
2019-05-15T09:35:01.939Z,372.00
2019-05-15T09:36:02.034Z,336.00
2019-05-15T09:37:02.010Z,296.00
2019-05-15T09:38:02.004Z,276.00
2019-05-15T09:39:02.042Z,272.00
2019-05-15T09:40:02.052Z,264.00
2019-05-15T09:41:02.076Z,264.00
2019-05-15T09:42:02.100Z,276.00
2019-05-15T09:43:02.119Z,304.00
2019-05-15T09:44:02.156Z,328.00
2019-05-15T09:45:02.188Z,368.00
2019-05-15T09:46:02.190Z,388.00
2019-05-15T09:47:02.214Z,384.00
2019-05-15T09:48:02.265Z,348.00
2019-05-15T09:49:02.260Z,316.00
2019-05-15T09:50:02.282Z,288.00
2019-05-15T09:51:02.309Z,252.00
2019-05-15T09:52:02.328Z,236.00
2019-05-15T09:53:02.367Z,208.00
2019-05-15T09:54:02.387Z,184.00
2019-05-15T09:55:02.501Z,176.00
2019-05-15T09:56:02.421Z,180.00
2019-05-15T09:57:02.444Z,180.00
2019-05-15T09:58:02.469Z,180.00
2019-05-15T09:59:02.490Z,180.00
2019-05-15T10:00:02.515Z,184.00
2019-05-15T10:01:02.542Z,192.00
2019-05-15T10:02:02.559Z,208.00
2019-05-15T10:03:02.595Z,204.00
2019-05-15T10:04:02.607Z,232.00
2019-05-15T10:05:06.667Z,408.00
2019-05-15T10:06:02.649Z,272.00
2019-05-15T10:07:02.715Z,252.00
2019-05-15T10:08:02.738Z,240.00
2019-05-15T10:09:02.725Z,228.00
2019-05-15T10:10:02.742Z,228.00
2019-05-15T10:11:02.766Z,236.00
2019-05-15T10:12:02.793Z,228.00
2019-05-15T10:13:02.810Z,216.00
2019-05-15T10:14:02.833Z,212.00
2019-05-15T10:15:02.861Z,208.00
2019-05-15T10:16:02.878Z,212.00
2019-05-15T10:17:02.908Z,220.00
2019-05-15T10:18:02.922Z,220.00
2019-05-15T10:19:02.946Z,228.00
2019-05-15T10:20:02.970Z,224.00
2019-05-15T10:21:03.003Z,216.00
2019-05-15T10:22:03.016Z,196.00
2019-05-15T10:23:03.058Z,180.00
2019-05-15T10:24:03.060Z,168.00
2019-05-15T10:25:03.083Z,160.00
2019-05-15T10:26:03.119Z,152.00
2019-05-15T10:27:03.133Z,140.00
2019-05-15T10:28:03.152Z,128.00
2019-05-15T10:29:03.175Z,120.00
2019-05-15T10:30:03.200Z,108.00
2019-05-15T10:31:03.230Z,104.00
2019-05-15T10:32:03.244Z,96.00
2019-05-15T10:33:03.267Z,92.00
2019-05-15T10:34:03.306Z,88.00
2019-05-15T10:35:03.324Z,84.00
2019-05-15T10:36:03.332Z,88.00
2019-05-15T10:37:03.358Z,88.00
2019-05-15T10:38:03.392Z,96.00
2019-05-15T10:39:03.440Z,100.00
2019-05-15T10:40:03.425Z,108.00
2019-05-15T10:41:09.385Z,108.00
2019-05-15T10:42:03.471Z,116.00
2019-05-15T10:43:03.495Z,124.00
2019-05-15T10:44:03.516Z,128.00
2019-05-15T10:45:03.542Z,132.00
2019-05-15T10:46:03.563Z,132.00
2019-05-15T10:47:03.583Z,132.00
2019-05-15T10:48:03.604Z,128.00
2019-05-15T10:49:03.645Z,120.00
2019-05-15T10:50:03.662Z,112.00
2019-05-15T10:51:07.182Z,108.00
2019-05-15T10:52:03.697Z,108.00
2019-05-15T10:53:03.822Z,108.00
2019-05-15T10:54:03.744Z,104.00
2019-05-15T10:55:03.766Z,108.00
2019-05-15T10:56:03.801Z,104.00
2019-05-15T10:57:05.375Z,100.00
2019-05-15T10:58:03.838Z,92.00
2019-05-15T10:59:03.859Z,84.00
2019-05-15T11:00:03.875Z,80.00
2019-05-15T11:01:04.211Z,76.00
2019-05-15T11:02:03.920Z,72.00
2019-05-15T11:03:03.950Z,64.00
2019-05-15T11:04:03.965Z,64.00
2019-05-15T11:05:04.001Z,60.00
2019-05-15T11:06:04.208Z,52.00
2019-05-15T11:07:04.369Z,52.00
2019-05-15T11:08:04.522Z,48.00
2019-05-15T11:09:18.814Z,44.00
2019-05-15T11:10:04.353Z,44.00
2019-05-15T11:11:04.139Z,40.00
2019-05-15T11:12:04.145Z,40.00
2019-05-15T11:13:04.169Z,36.00
2019-05-15T11:14:04.196Z,32.00
2019-05-15T11:15:04.213Z,28.00
2019-05-15T11:16:04.239Z,28.00
2019-05-15T11:17:04.257Z,24.00
2019-05-15T11:18:04.286Z,24.00
2019-05-15T11:19:04.321Z,20.00
2019-05-15T11:20:04.325Z,16.00
2019-05-15T11:21:04.352Z,16.00
2019-05-15T11:22:04.445Z,16.00
2019-05-15T11:23:04.422Z,16.00
2019-05-15T11:24:04.423Z,12.00
2019-05-15T11:25:04.446Z,8.00
2019-05-15T11:26:04.719Z,8.00
2019-05-15T11:27:13.550Z,8.00
2019-05-15T11:28:04.502Z,8.00
2019-05-15T11:29:04.529Z,8.00
2019-05-15T11:30:04.673Z,4.00
2019-05-15T11:31:05.572Z,4.00
2019-05-15T11:32:04.817Z,4.00
2019-05-15T11:33:04.710Z,0.00
2019-05-15T11:34:04.637Z,4.00
2019-05-15T11:35:04.825Z,4.00
2019-05-15T11:36:06.236Z,0.00
2019-05-15T11:37:04.709Z,4.00
2019-05-15T11:38:04.726Z,0.00
2019-05-15T11:39:04.748Z,0.00
2019-05-15T11:40:04.780Z,4.00
2019-05-15T11:41:04.889Z,0.00
2019-05-15T11:42:04.817Z,0.00
2019-05-15T11:43:04.836Z,0.00
2019-05-15T11:44:04.878Z,0.00
2019-05-15T11:45:04.882Z,0.00
2019-05-15T11:46:04.906Z,0.00
2019-05-15T11:47:04.926Z,0.00
2019-05-15T11:48:04.948Z,0.00
2019-05-15T11:49:04.973Z,0.00
2019-05-15T11:50:04.992Z,0.00
2019-05-15T11:51:05.124Z,0.00
2019-05-15T11:52:05.227Z,0.00
2019-05-15T11:53:05.181Z,0.00
2019-05-15T11:54:05.085Z,0.00
2019-05-15T11:55:05.105Z,0.00
2019-05-15T11:56:05.125Z,0.00
2019-05-15T11:57:05.149Z,0.00
2019-05-15T11:58:05.170Z,0.00
2019-05-15T11:59:05.193Z,0.00
2019-05-15T12:00:05.484Z,0.00
2019-05-15T12:01:05.236Z,0.00
2019-05-15T12:02:05.372Z,0.00
2019-05-15T12:03:05.281Z,0.00
2019-05-15T12:04:05.307Z,0.00
2019-05-15T12:05:05.325Z,0.00
2019-05-15T12:06:15.973Z,0.00
2019-05-15T12:07:05.369Z,0.00
2019-05-15T12:08:05.390Z,0.00
2019-05-15T12:09:05.418Z,0.00
2019-05-15T12:10:05.435Z,0.00
2019-05-15T12:11:05.468Z,0.00
2019-05-15T12:12:05.484Z,0.00
2019-05-15T12:13:05.503Z,0.00
2019-05-15T12:14:05.536Z,0.00
2019-05-15T12:15:05.549Z,0.00
2019-05-15T12:16:05.579Z,0.00
2019-05-15T12:17:12.427Z,0.00
2019-05-15T12:18:05.610Z,0.00
2019-05-15T12:19:09.512Z,0.00
2019-05-15T12:20:07.099Z,0.00
2019-05-15T12:21:05.677Z,0.00
2019-05-15T12:22:05.699Z,0.00
2019-05-15T12:23:08.691Z,0.00
2019-05-15T12:24:08.522Z,0.00
2019-05-15T12:25:09.306Z,0.00
2019-05-15T12:26:08.803Z,0.00
2019-05-15T12:27:15.359Z,0.00
2019-05-15T12:28:09.109Z,0.00
2019-05-15T12:29:05.858Z,0.00
2019-05-15T12:30:09.786Z,0.00
2019-05-15T12:31:05.906Z,0.00
2019-05-15T12:32:25.390Z,8.00
2019-05-15T12:33:05.979Z,12.00
2019-05-15T12:34:05.963Z,12.00